createdAt,value
2022-12-11T00:02:29.390Z,5.59
2022-12-11T00:05:10.687Z,5.51
2022-12-11T00:08:02.644Z,5.47
2022-12-11T00:10:58.253Z,5.39
2022-12-11T00:13:55.638Z,5.21
2022-12-11T00:16:36.307Z,5.17
2022-12-11T00:19:32.013Z,5.06
2022-12-11T00:22:19.109Z,5.14
2022-12-11T00:25:11.505Z,5.09
2022-12-11T00:27:54.246Z,4.98
2022-12-11T00:30:46.427Z,5.10
2022-12-11T00:33:38.225Z,5.05
2022-12-11T00:36:14.453Z,5.08
2022-12-11T00:39:03.320Z,5.10
2022-12-11T00:41:44.173Z,5.04
2022-12-11T00:44:31.297Z,4.94
2022-12-11T00:47:20.213Z,5.04
2022-12-11T00:49:55.601Z,5.09
2022-12-11T00:52:52.299Z,5.15
2022-12-11T00:55:41.050Z,5.09
2022-12-11T00:58:25.241Z,4.90
2022-12-11T01:01:11.647Z,4.98
2022-12-11T01:03:54.529Z,4.78
2022-12-11T01:06:31.525Z,4.76
2022-12-11T01:09:29.138Z,4.62
2022-12-11T01:12:07.004Z,4.77
2022-12-11T01:14:51.627Z,4.68
2022-12-11T01:17:39.082Z,4.59
2022-12-11T01:20:25.261Z,4.50
2022-12-11T01:23:17.643Z,4.64
2022-12-11T01:26:03.832Z,4.69
2022-12-11T01:28:54.034Z,4.58
2022-12-11T01:31:39.213Z,4.46
2022-12-11T01:34:39.955Z,4.70
2022-12-11T01:37:26.024Z,4.50
2022-12-11T01:40:09.257Z,4.46
2022-12-11T01:42:46.350Z,4.47
2022-12-11T01:45:47.719Z,4.46
2022-12-11T01:48:42.524Z,4.57
2022-12-11T01:51:22.465Z,4.37
2022-12-11T01:54:12.232Z,4.48
2022-12-11T01:57:05.310Z,4.42
2022-12-11T01:59:54.237Z,4.43
2022-12-11T02:02:46.375Z,4.51
2022-12-11T02:05:29.427Z,4.32
2022-12-11T02:08:14.426Z,4.38
2022-12-11T02:10:59.268Z,4.43
2022-12-11T02:13:53.258Z,4.27
2022-12-11T02:16:55.505Z,4.23
2022-12-11T02:19:55.750Z,4.17
2022-12-11T02:22:56.768Z,4.24
2022-12-11T02:26:06.231Z,4.03
2022-12-11T02:29:07.249Z,4.01
2022-12-11T02:32:10.187Z,3.94
2022-12-11T02:35:26.779Z,4.07
2022-12-11T02:38:37.984Z,3.92
2022-12-11T02:41:28.248Z,3.97
2022-12-11T02:44:10.054Z,3.72
2022-12-11T02:47:08.570Z,3.75
2022-12-11T02:49:54.168Z,3.74
2022-12-11T02:52:43.213Z,3.67
2022-12-11T02:55:36.400Z,3.68
2022-12-11T02:58:52.645Z,3.73
2022-12-11T03:01:35.849Z,3.47
2022-12-11T03:04:21.695Z,3.31
2022-12-11T03:07:12.284Z,3.29
2022-12-11T03:10:18.960Z,3.29
2022-12-11T03:13:01.654Z,3.17
2022-12-11T03:16:09.080Z,3.31
2022-12-11T03:19:10.238Z,2.95
2022-12-11T03:22:18.228Z,2.96
2022-12-11T03:25:02.679Z,2.90
2022-12-11T03:27:57.196Z,2.88
2022-12-11T03:30:42.983Z,2.88
2022-12-11T03:33:51.910Z,2.83
2022-12-11T03:36:39.523Z,2.69
2022-12-11T03:39:50.473Z,2.74
2022-12-11T03:42:34.603Z,2.83
2022-12-11T03:45:22.181Z,2.74
2022-12-11T03:48:06.277Z,2.56
2022-12-11T03:50:46.363Z,2.73
2022-12-11T03:53:39.545Z,2.81
2022-12-11T03:56:34.392Z,2.67
2022-12-11T03:59:33.276Z,2.66
2022-12-11T04:02:25.487Z,2.61
2022-12-11T04:05:11.513Z,2.54
2022-12-11T04:08:04.738Z,2.64
2022-12-11T04:11:21.821Z,2.67
2022-12-11T04:14:18.830Z,2.62
2022-12-11T04:16:58.396Z,2.59
2022-12-11T04:20:09.630Z,2.58
2022-12-11T04:23:10.002Z,2.66
2022-12-11T04:25:53.643Z,2.41
2022-12-11T04:28:37.773Z,2.62
2022-12-11T04:31:26.255Z,2.55
2022-12-11T04:34:13.110Z,2.57
2022-12-11T04:36:57.035Z,2.44
2022-12-11T04:40:02.056Z,2.71
2022-12-11T04:42:55.074Z,2.39
2022-12-11T04:45:36.646Z,2.36
2022-12-11T04:48:12.418Z,2.41
2022-12-11T04:50:56.199Z,2.48
2022-12-11T04:53:42.177Z,2.55
2022-12-11T04:56:30.512Z,2.48
2022-12-11T04:59:23.838Z,2.48
2022-12-11T05:02:15.984Z,2.30
2022-12-11T05:05:04.209Z,2.14
2022-12-11T05:08:01.439Z,2.10
2022-12-11T05:11:08.309Z,2.28
2022-12-11T05:13:54.276Z,2.16
2022-12-11T05:16:44.284Z,2.23
2022-12-11T05:19:30.556Z,2.25
2022-12-11T05:22:18.241Z,2.18
2022-12-11T05:25:02.038Z,2.33
2022-12-11T05:27:46.134Z,2.20
2022-12-11T05:30:39.185Z,2.28
2022-12-11T05:33:23.785Z,2.25
2022-12-11T05:36:02.254Z,2.29
2022-12-11T05:38:40.305Z,2.07
2022-12-11T05:41:27.299Z,2.05
2022-12-11T05:44:13.722Z,2.12
2022-12-11T05:46:58.443Z,2.20
2022-12-11T05:49:43.576Z,2.33
2022-12-11T05:52:24.051Z,2.18
2022-12-11T05:55:04.451Z,2.18
2022-12-11T05:58:02.021Z,2.20
2022-12-11T06:00:50.032Z,2.15
2022-12-11T06:03:37.018Z,2.11
2022-12-11T06:06:23.680Z,2.18
2022-12-11T06:09:07.901Z,2.26
2022-12-11T06:11:56.765Z,2.21
2022-12-11T06:14:36.873Z,2.28
2022-12-11T06:17:24.232Z,2.28
2022-12-11T06:20:18.483Z,2.17
2022-12-11T06:23:03.500Z,2.08
2022-12-11T06:25:41.518Z,2.23
2022-12-11T06:28:20.565Z,1.99
2022-12-11T06:31:12.006Z,2.27
2022-12-11T06:33:56.937Z,2.23
2022-12-11T06:36:46.105Z,2.16
2022-12-11T06:39:42.635Z,2.22
2022-12-11T06:42:21.287Z,2.11
2022-12-11T06:45:13.723Z,2.11
2022-12-11T06:48:02.532Z,2.14
2022-12-11T06:53:27.130Z,2.17
2022-12-11T06:56:11.456Z,2.28
2022-12-11T06:59:05.681Z,2.36
2022-12-11T07:01:51.241Z,2.24
2022-12-11T07:04:37.676Z,2.36
2022-12-11T07:07:23.931Z,2.38
2022-12-11T07:10:14.183Z,2.33
2022-12-11T07:13:06.711Z,2.35
2022-12-11T07:15:48.819Z,2.46
2022-12-11T07:18:37.295Z,2.36
2022-12-11T07:21:18.435Z,2.21
2022-12-11T07:24:13.820Z,2.33
2022-12-11T07:27:03.142Z,2.28
2022-12-11T07:29:44.711Z,2.28
2022-12-11T07:32:28.030Z,2.43
2022-12-11T07:35:11.372Z,2.37
2022-12-11T07:37:57.963Z,2.49
2022-12-11T07:40:48.044Z,2.41
2022-12-11T07:43:38.224Z,2.32
2022-12-11T07:46:29.692Z,2.44
2022-12-11T07:49:26.586Z,2.47
2022-12-11T07:52:22.775Z,2.58
2022-12-11T07:55:14.301Z,2.69
2022-12-11T07:58:12.081Z,2.51
2022-12-11T08:00:54.892Z,2.74
2022-12-11T08:03:46.214Z,2.62
2022-12-11T08:06:28.153Z,2.61
2022-12-11T08:09:28.096Z,2.70
2022-12-11T08:12:20.458Z,2.88
2022-12-11T08:15:09.089Z,2.83
2022-12-11T08:18:04.470Z,2.59
2022-12-11T08:20:51.217Z,2.73
2022-12-11T08:23:44.232Z,2.74
2022-12-11T08:26:40.476Z,2.86
2022-12-11T08:29:23.859Z,2.76
2022-12-11T08:32:13.856Z,2.76
2022-12-11T08:35:00.953Z,2.88
2022-12-11T08:37:45.105Z,2.97
2022-12-11T08:40:38.439Z,3.07
2022-12-11T08:43:21.244Z,2.97
2022-12-11T08:46:18.161Z,2.87
2022-12-11T08:49:01.659Z,2.93
2022-12-11T08:51:42.624Z,3.03
2022-12-11T08:54:36.436Z,3.01
2022-12-11T08:57:25.333Z,3.12
2022-12-11T09:00:18.368Z,3.06
2022-12-11T09:03:12.516Z,3.10
2022-12-11T09:06:13.285Z,3.06
2022-12-11T09:09:01.071Z,3.15
2022-12-11T09:11:41.528Z,3.15
2022-12-11T09:14:28.414Z,2.90
2022-12-11T09:17:12.184Z,2.86
2022-12-11T09:19:58.208Z,3.12
2022-12-11T09:22:53.664Z,3.03
2022-12-11T09:25:40.248Z,2.96
2022-12-11T09:28:24.220Z,2.90
2022-12-11T09:31:18.363Z,3.15
2022-12-11T09:34:07.616Z,3.04
2022-12-11T09:36:55.220Z,2.79
2022-12-11T09:39:40.663Z,2.72
2022-12-11T09:42:28.240Z,2.81
2022-12-11T09:45:18.181Z,2.89
2022-12-11T09:48:05.343Z,2.81
2022-12-11T09:50:56.394Z,2.74
2022-12-11T09:53:51.199Z,2.72
2022-12-11T09:56:40.264Z,2.91
2022-12-11T10:00:04.196Z,2.97
2022-12-11T10:03:21.776Z,2.99
2022-12-11T10:06:13.335Z,3.14
2022-12-11T10:09:15.210Z,3.16
2022-12-11T10:12:14.003Z,3.20
2022-12-11T10:15:30.670Z,3.21
2022-12-11T10:18:13.165Z,3.08
2022-12-11T10:20:59.266Z,3.31
2022-12-11T10:24:10.116Z,3.32
2022-12-11T10:26:53.159Z,3.34
2022-12-11T10:29:43.217Z,3.29
2022-12-11T10:32:27.061Z,3.19
2022-12-11T10:35:25.926Z,3.34
2022-12-11T10:38:12.281Z,3.37
2022-12-11T10:40:57.290Z,3.35
2022-12-11T10:44:03.793Z,3.30
2022-12-11T10:46:52.458Z,3.27
2022-12-11T10:49:55.173Z,3.16
2022-12-11T10:52:49.840Z,3.11
2022-12-11T10:55:33.176Z,3.18
2022-12-11T10:58:26.019Z,3.19
2022-12-11T11:01:20.421Z,3.30
2022-12-11T11:04:24.681Z,3.32
2022-12-11T11:07:13.634Z,3.24
2022-12-11T11:09:56.280Z,3.04
2022-12-11T11:12:40.089Z,3.14
2022-12-11T11:15:21.078Z,3.20
2022-12-11T11:18:25.284Z,3.23
2022-12-11T11:21:04.110Z,2.99
2022-12-11T11:23:50.533Z,3.16
2022-12-11T11:27:14.224Z,3.06
2022-12-11T11:30:08.396Z,3.12
2022-12-11T11:33:02.325Z,2.89
2022-12-11T11:35:56.441Z,2.87
2022-12-11T11:39:13.225Z,2.71
2022-12-11T11:42:03.336Z,2.80
2022-12-11T11:44:58.102Z,3.12
2022-12-11T11:47:51.035Z,2.97
2022-12-11T11:50:50.707Z,2.94
2022-12-11T11:53:45.330Z,2.79
2022-12-11T11:56:43.113Z,2.94
2022-12-11T11:59:59.690Z,3.02
2022-12-11T12:03:01.938Z,2.98
2022-12-11T12:05:57.005Z,3.19
2022-12-11T12:09:19.496Z,3.20
2022-12-11T12:12:43.855Z,3.09
2022-12-11T12:15:35.186Z,3.23
2022-12-11T12:18:49.123Z,3.17
2022-12-11T12:21:44.976Z,3.01
2022-12-11T12:25:00.763Z,2.87
2022-12-11T12:28:08.378Z,3.07
2022-12-11T12:31:04.357Z,3.08
2022-12-11T12:34:08.509Z,2.88
2022-12-11T12:37:12.382Z,2.86
2022-12-11T12:40:23.163Z,2.74
2022-12-11T12:43:10.473Z,2.70
2022-12-11T12:46:37.142Z,2.62
2022-12-11T12:49:44.440Z,2.75
2022-12-11T12:52:43.116Z,2.73
2022-12-11T12:55:31.941Z,2.88
2022-12-11T12:58:24.644Z,2.96
2022-12-11T13:01:38.546Z,2.90
2022-12-11T13:04:56.639Z,2.82
2022-12-11T13:07:40.971Z,2.82
2022-12-11T13:10:42.306Z,2.93
2022-12-11T13:13:56.120Z,2.82
2022-12-11T13:16:51.150Z,2.95
2022-12-11T13:19:55.952Z,2.99
2022-12-11T13:22:56.755Z,2.98
2022-12-11T13:26:05.464Z,3.15
2022-12-11T13:28:58.536Z,2.97
2022-12-11T13:31:41.785Z,3.07
2022-12-11T13:35:03.465Z,3.08
2022-12-11T13:37:55.506Z,2.89
2022-12-11T13:40:41.170Z,2.90
2022-12-11T13:43:36.638Z,2.90
2022-12-11T13:46:17.403Z,3.09
2022-12-11T13:49:10.836Z,3.09
2022-12-11T13:52:13.548Z,3.02
2022-12-11T13:55:01.543Z,3.09
2022-12-11T13:57:54.153Z,3.09
2022-12-11T14:00:41.749Z,2.99
2022-12-11T14:03:35.094Z,3.01
2022-12-11T14:06:21.515Z,3.15
2022-12-11T14:09:26.113Z,3.17
2022-12-11T14:12:15.147Z,2.91
2022-12-11T14:15:13.496Z,3.04
2022-12-11T14:17:52.300Z,3.15
2022-12-11T14:20:36.349Z,3.01
2022-12-11T14:23:38.819Z,2.97
2022-12-11T14:26:31.240Z,2.93
2022-12-11T14:29:12.635Z,2.92
2022-12-11T14:31:55.027Z,2.97
2022-12-11T14:35:03.893Z,2.96
2022-12-11T14:37:49.364Z,2.80
2022-12-11T14:40:47.130Z,2.79
2022-12-11T14:43:49.566Z,2.86
2022-12-11T14:46:43.133Z,2.72
2022-12-11T14:49:30.944Z,2.62
2022-12-11T14:52:32.588Z,2.60
2022-12-11T14:55:46.142Z,2.83
2022-12-11T14:58:38.325Z,2.60
2022-12-11T15:01:29.663Z,2.50
2022-12-11T15:04:25.302Z,2.62
2022-12-11T15:07:05.557Z,2.51
2022-12-11T15:09:54.720Z,2.46
2022-12-11T15:12:49.884Z,2.33
2022-12-11T15:16:11.239Z,2.28
2022-12-11T15:18:59.027Z,2.45
2022-12-11T15:21:52.138Z,2.33
2022-12-11T15:24:41.864Z,2.41
2022-12-11T15:27:53.128Z,2.27
2022-12-11T15:30:39.757Z,2.26
2022-12-11T15:33:34.965Z,2.49
2022-12-11T15:36:34.916Z,2.31
2022-12-11T15:39:18.142Z,2.18
